createdAt,value
2022-08-20T00:01:02.395Z,14.20
2022-08-20T00:03:29.135Z,12.93
2022-08-20T00:06:00.805Z,11.77
2022-08-20T00:08:25.075Z,10.70
2022-08-20T00:10:55.529Z,12.55
2022-08-20T00:13:25.797Z,12.98
2022-08-20T00:15:50.061Z,12.10
2022-08-20T00:18:14.746Z,11.63
2022-08-20T00:20:43.192Z,10.95
2022-08-20T00:23:10.508Z,11.60
2022-08-20T00:25:34.783Z,12.85
2022-08-20T00:27:59.843Z,10.93
2022-08-20T00:30:26.771Z,11.75
2022-08-20T00:32:54.372Z,12.15
2022-08-20T00:35:21.084Z,11.38
2022-08-20T00:37:45.227Z,13.40
2022-08-20T00:40:22.391Z,14.50
2022-08-20T00:42:51.049Z,14.68
2022-08-20T00:45:16.102Z,13.27
2022-08-20T00:47:51.196Z,14.43
2022-08-20T00:50:19.273Z,12.50
2022-08-20T00:52:49.816Z,13.48
2022-08-20T00:55:15.158Z,12.65
2022-08-20T00:57:44.577Z,12.15
2022-08-20T01:00:30.419Z,11.50
2022-08-20T01:02:56.331Z,12.43
2022-08-20T01:05:29.489Z,14.00
2022-08-20T01:07:55.786Z,12.93
2022-08-20T01:10:26.153Z,14.55
2022-08-20T01:12:59.117Z,14.18
2022-08-20T01:15:30.829Z,11.60
2022-08-20T01:17:59.835Z,16.42
2022-08-20T01:20:28.613Z,13.45
2022-08-20T01:23:19.836Z,13.57
2022-08-20T01:25:50.738Z,15.30
2022-08-20T01:28:16.287Z,12.63
2022-08-20T01:30:40.756Z,15.82
2022-08-20T01:33:05.026Z,13.38
2022-08-20T01:35:30.432Z,12.95
2022-08-20T01:37:54.526Z,13.13
2022-08-20T01:40:37.657Z,13.07
2022-08-20T01:43:09.737Z,14.25
2022-08-20T01:45:34.135Z,12.50
2022-08-20T01:47:58.328Z,11.50
2022-08-20T01:50:27.759Z,14.18
2022-08-20T01:52:59.263Z,12.82
2022-08-20T01:55:23.303Z,12.85
2022-08-20T01:57:48.528Z,12.50
2022-08-20T02:00:19.782Z,12.73
2022-08-20T02:02:49.607Z,14.60
2022-08-20T02:05:14.051Z,13.63
2022-08-20T02:07:37.861Z,12.95
2022-08-20T02:10:02.619Z,11.93
2022-08-20T02:12:26.922Z,11.90
2022-08-20T02:14:54.395Z,10.50
2022-08-20T02:17:21.158Z,12.27
2022-08-20T02:19:50.847Z,13.88
2022-08-20T02:22:22.129Z,11.38
2022-08-20T02:24:46.077Z,11.07
2022-08-20T02:27:09.976Z,13.60
2022-08-20T02:29:37.235Z,12.43
2022-08-20T02:32:32.063Z,10.75
2022-08-20T02:34:46.576Z,11.45
2022-08-20T02:37:11.717Z,12.20
2022-08-20T02:39:36.673Z,14.90
2022-08-20T02:42:01.959Z,13.43
2022-08-20T02:44:25.892Z,11.60
2022-08-20T02:46:50.656Z,11.70
2022-08-20T02:49:14.462Z,13.93
2022-08-20T02:51:39.390Z,12.93
2022-08-20T02:54:03.123Z,13.15
2022-08-20T02:56:27.434Z,13.60
2022-08-20T02:58:51.363Z,14.25
2022-08-20T03:01:18.919Z,12.70
2022-08-20T03:03:43.743Z,12.85
2022-08-20T03:06:10.181Z,12.60
2022-08-20T03:08:39.253Z,13.95
2022-08-20T03:11:03.133Z,16.23
2022-08-20T03:13:27.270Z,16.80
2022-08-20T03:15:58.414Z,15.05
2022-08-20T03:18:24.302Z,16.20
2022-08-20T03:20:52.063Z,15.00
2022-08-20T03:23:17.554Z,15.35
2022-08-20T03:25:43.412Z,14.75
2022-08-20T03:28:07.545Z,14.20
2022-08-20T03:30:32.528Z,15.45
2022-08-20T03:32:56.757Z,16.58
2022-08-20T03:35:24.818Z,18.80
2022-08-20T03:37:49.280Z,16.45
2022-08-20T03:40:20.429Z,16.88
2022-08-20T03:42:45.695Z,19.95
2022-08-20T03:45:13.035Z,17.65
2022-08-20T03:47:39.207Z,21.17
2022-08-20T03:50:06.984Z,18.77
2022-08-20T03:52:30.823Z,19.27
2022-08-20T03:54:55.131Z,16.98
2022-08-20T03:57:18.965Z,21.67
2022-08-20T03:59:46.102Z,20.45
2022-08-20T04:02:14.235Z,16.27
2022-08-20T04:04:38.378Z,19.20
2022-08-20T04:07:12.858Z,19.05
2022-08-20T04:09:36.753Z,22.58
2022-08-20T04:12:02.055Z,18.50
2022-08-20T04:14:26.021Z,20.02
2022-08-20T04:16:54.772Z,18.92
2022-08-20T04:19:18.783Z,23.73
2022-08-20T04:21:42.815Z,22.60
2022-08-20T04:24:07.869Z,23.13
2022-08-20T04:26:48.358Z,23.33
2022-08-20T04:29:12.721Z,24.67
2022-08-20T04:31:36.851Z,21.38
2022-08-20T04:34:05.412Z,21.50
2022-08-20T04:36:32.116Z,24.38
2022-08-20T04:38:56.554Z,21.35
2022-08-20T04:41:23.727Z,22.83
2022-08-20T04:43:48.519Z,26.30
2022-08-20T04:46:14.490Z,23.50
2022-08-20T04:48:39.404Z,26.00
2022-08-20T04:51:07.128Z,18.13
2022-08-20T04:53:33.810Z,17.95
2022-08-20T04:56:00.839Z,20.98
2022-08-20T04:58:28.585Z,19.20
2022-08-20T05:00:55.731Z,16.25
2022-08-20T05:03:25.981Z,17.52
2022-08-20T05:05:50.532Z,15.75
2022-08-20T05:08:19.657Z,14.93
2022-08-20T05:10:48.008Z,16.05
2022-08-20T05:13:13.345Z,19.83
2022-08-20T05:15:39.358Z,14.35
2022-08-20T05:18:06.109Z,15.50
2022-08-20T05:20:33.933Z,14.57
2022-08-20T05:22:59.943Z,16.17
2022-08-20T05:25:29.943Z,15.13
2022-08-20T05:28:01.664Z,17.80
2022-08-20T05:30:26.381Z,16.77
2022-08-20T05:32:51.424Z,19.45
2022-08-20T05:35:15.981Z,19.25
2022-08-20T05:37:44.942Z,19.50
2022-08-20T05:40:16.395Z,16.35
2022-08-20T05:42:43.421Z,17.40
2022-08-20T05:45:11.209Z,16.45
2022-08-20T05:47:35.545Z,16.27
2022-08-20T05:50:09.965Z,16.90
2022-08-20T05:52:44.457Z,18.98
2022-08-20T05:55:11.334Z,28.45
2022-08-20T05:57:35.414Z,26.75
2022-08-20T06:00:02.768Z,29.83
2022-08-20T06:02:52.176Z,32.58
2022-08-20T06:05:15.970Z,36.85
2022-08-20T06:07:42.880Z,32.22
2022-08-20T06:10:09.036Z,33.42
2022-08-20T06:12:32.821Z,36.25
2022-08-20T06:14:56.515Z,45.03
2022-08-20T06:17:22.686Z,36.20
2022-08-20T06:19:48.434Z,37.22
2022-08-20T06:22:19.565Z,37.17
2022-08-20T06:24:47.065Z,44.88
2022-08-20T06:27:14.835Z,43.25
2022-08-20T06:29:38.548Z,49.53
2022-08-20T06:32:02.278Z,43.90
2022-08-20T06:34:37.482Z,53.60
2022-08-20T06:37:18.061Z,45.35
2022-08-20T06:39:41.814Z,48.45
2022-08-20T06:42:05.864Z,48.42
2022-08-20T06:44:29.602Z,46.05
2022-08-20T06:46:55.708Z,46.85
2022-08-20T06:49:19.402Z,45.92
2022-08-20T06:51:45.165Z,48.97
2022-08-20T06:54:13.752Z,48.13
2022-08-20T06:56:37.630Z,56.17
2022-08-20T06:59:01.712Z,50.78
2022-08-20T07:01:25.385Z,45.83
2022-08-20T07:03:55.125Z,49.25
2022-08-20T07:06:20.367Z,47.25
2022-08-20T07:08:45.849Z,44.95
2022-08-20T07:11:10.160Z,48.58
2022-08-20T07:13:33.770Z,51.83
2022-08-20T07:15:57.734Z,55.85
2022-08-20T07:18:28.803Z,49.80
2022-08-20T07:20:55.031Z,44.67
2022-08-20T07:23:18.767Z,44.45
2022-08-20T07:25:45.974Z,44.92
2022-08-20T07:28:14.819Z,40.17
2022-08-20T07:30:57.787Z,41.03
2022-08-20T07:33:21.776Z,41.83
2022-08-20T07:35:49.086Z,41.10
2022-08-20T07:38:19.472Z,40.45
2022-08-20T07:40:44.750Z,41.88
2022-08-20T07:43:09.893Z,40.70
2022-08-20T07:45:38.166Z,37.25
2022-08-20T07:48:09.209Z,47.85
2022-08-20T07:50:33.260Z,39.28
2022-08-20T07:53:00.597Z,41.92
2022-08-20T07:55:25.009Z,40.83
2022-08-20T07:57:52.102Z,39.88
2022-08-20T08:00:18.906Z,39.33
2022-08-20T08:02:42.499Z,40.22
2022-08-20T08:05:08.209Z,40.67
2022-08-20T08:07:32.634Z,36.55
2022-08-20T08:09:58.900Z,36.38
2022-08-20T08:12:23.441Z,35.50
2022-08-20T08:14:52.436Z,40.40
2022-08-20T08:17:17.903Z,37.85
2022-08-20T08:19:48.642Z,35.30
2022-08-20T08:22:16.264Z,38.67
2022-08-20T08:24:56.906Z,35.70
2022-08-20T08:27:22.296Z,31.98
2022-08-20T08:29:46.054Z,35.30
2022-08-20T08:32:10.991Z,34.50
2022-08-20T08:34:37.634Z,32.00
2022-08-20T08:37:02.888Z,32.13
2022-08-20T08:39:30.308Z,27.48
2022-08-20T08:42:05.194Z,35.75
2022-08-20T08:44:38.470Z,28.98
2022-08-20T08:47:18.383Z,33.88
2022-08-20T08:49:43.406Z,30.30
2022-08-20T08:52:14.795Z,29.80
2022-08-20T08:54:44.376Z,28.90
2022-08-20T08:57:10.591Z,27.00
2022-08-20T08:59:52.459Z,30.67
2022-08-20T09:02:23.419Z,24.20
2022-08-20T09:04:51.478Z,25.35
2022-08-20T09:07:18.551Z,27.30
2022-08-20T09:09:46.415Z,24.40
2022-08-20T09:12:13.069Z,25.80
2022-08-20T09:14:37.265Z,25.90
2022-08-20T09:17:00.897Z,23.30
2022-08-20T09:19:24.502Z,22.67
2022-08-20T09:21:49.831Z,29.25
2022-08-20T09:24:16.799Z,26.25
2022-08-20T09:26:40.384Z,24.65
2022-08-20T09:29:03.940Z,27.75
2022-08-20T09:31:27.837Z,29.52
2022-08-20T09:33:51.478Z,30.20
2022-08-20T09:36:31.373Z,28.13
2022-08-20T09:38:58.369Z,26.55
2022-08-20T09:41:21.977Z,25.88
2022-08-20T09:43:45.529Z,25.33
2022-08-20T09:46:09.140Z,27.35
2022-08-20T09:48:32.706Z,26.88
2022-08-20T09:50:56.252Z,25.58
2022-08-20T09:53:21.493Z,26.63
2022-08-20T09:55:50.258Z,28.67
2022-08-20T09:58:25.134Z,31.23
2022-08-20T10:00:48.878Z,32.05
2022-08-20T10:03:12.454Z,27.88
2022-08-20T10:05:36.027Z,33.13
2022-08-20T10:07:59.935Z,33.10
2022-08-20T10:10:23.473Z,31.17
2022-08-20T10:12:51.644Z,31.77
2022-08-20T10:15:18.620Z,32.80
2022-08-20T10:17:45.798Z,35.15
2022-08-20T10:20:13.555Z,38.65
2022-08-20T10:22:37.722Z,38.72
2022-08-20T10:25:01.350Z,30.55
2022-08-20T10:27:25.558Z,31.42
2022-08-20T10:29:50.474Z,30.25
2022-08-20T10:32:17.376Z,32.88
2022-08-20T10:34:41.516Z,29.20
2022-08-20T10:37:05.166Z,29.58
2022-08-20T10:39:28.753Z,33.28
2022-08-20T10:41:55.242Z,30.88
2022-08-20T10:44:18.986Z,30.55
2022-08-20T10:46:45.738Z,26.75
2022-08-20T10:49:09.266Z,29.75
2022-08-20T10:51:33.142Z,32.10
2022-08-20T10:53:56.704Z,28.33
2022-08-20T10:56:21.115Z,31.90
2022-08-20T10:58:44.826Z,29.83
2022-08-20T11:01:09.410Z,31.77
2022-08-20T11:03:34.837Z,27.35
2022-08-20T11:05:58.590Z,25.95
2022-08-20T11:08:33.643Z,25.90
2022-08-20T11:10:58.442Z,27.75
2022-08-20T11:13:22.944Z,26.80
2022-08-20T11:15:47.205Z,26.25
2022-08-20T11:18:11.297Z,29.35
2022-08-20T11:20:36.981Z,28.02
2022-08-20T11:23:01.090Z,26.50
2022-08-20T11:25:25.085Z,27.70
2022-08-20T11:27:51.406Z,26.25
2022-08-20T11:30:19.438Z,24.35
2022-08-20T11:32:43.198Z,27.25
2022-08-20T11:35:38.287Z,23.80
2022-08-20T11:37:53.264Z,21.95
2022-08-20T11:40:16.911Z,24.15
2022-08-20T11:42:58.624Z,25.75
2022-08-20T11:45:25.509Z,21.95
2022-08-20T11:47:49.361Z,24.80
2022-08-20T11:50:17.061Z,27.38
2022-08-20T11:52:43.550Z,23.67
2022-08-20T11:55:11.502Z,20.40
2022-08-20T11:57:38.170Z,22.70
2022-08-20T12:00:05.388Z,21.52
2022-08-20T12:02:32.732Z,21.10
2022-08-20T12:04:56.341Z,22.33
2022-08-20T12:07:23.230Z,18.15
2022-08-20T12:09:50.754Z,17.70
2022-08-20T12:12:17.258Z,20.92
2022-08-20T12:14:41.095Z,19.17
2022-08-20T12:17:10.314Z,20.45
2022-08-20T12:19:33.874Z,20.55
2022-08-20T12:21:57.445Z,17.23
2022-08-20T12:24:21.058Z,18.38
2022-08-20T12:26:44.609Z,24.20
2022-08-20T12:29:09.545Z,19.08
2022-08-20T12:31:33.078Z,22.05
2022-08-20T12:33:56.743Z,24.15
2022-08-20T12:36:20.282Z,19.55
2022-08-20T12:38:43.967Z,19.65
2022-08-20T12:41:07.812Z,21.58
2022-08-20T12:43:31.759Z,21.08
2022-08-20T12:45:56.751Z,19.55
2022-08-20T12:48:21.007Z,21.45
2022-08-20T12:50:46.468Z,19.85
2022-08-20T12:53:10.419Z,20.60
2022-08-20T12:55:37.625Z,21.88
2022-08-20T12:58:03.445Z,16.73
2022-08-20T13:00:31.031Z,19.25
2022-08-20T13:02:59.459Z,17.75
2022-08-20T13:05:24.007Z,21.08
2022-08-20T13:07:50.056Z,20.00
2022-08-20T13:10:17.452Z,16.85
2022-08-20T13:12:41.181Z,16.13
2022-08-20T13:15:05.335Z,18.30
2022-08-20T13:17:38.440Z,18.35
2022-08-20T13:20:05.562Z,18.98
2022-08-20T13:22:29.307Z,18.80
2022-08-20T13:24:53.548Z,14.90
2022-08-20T13:27:22.656Z,17.77
2022-08-20T13:29:49.040Z,16.00
2022-08-20T13:32:12.590Z,12.55
2022-08-20T13:34:36.054Z,16.95
2022-08-20T13:37:01.157Z,12.85
2022-08-20T13:39:25.207Z,15.70
2022-08-20T13:41:48.765Z,16.35
2022-08-20T13:44:12.239Z,17.52
2022-08-20T13:46:35.896Z,12.73
2022-08-20T13:48:59.615Z,15.00
2022-08-20T13:51:23.287Z,16.13
2022-08-20T13:53:52.684Z,15.63
2022-08-20T13:56:16.206Z,15.90
2022-08-20T13:58:39.799Z,12.52
2022-08-20T14:01:03.433Z,15.35
2022-08-20T14:03:27.067Z,13.13
2022-08-20T14:05:50.817Z,13.43
2022-08-20T14:08:17.856Z,10.43
2022-08-20T14:10:44.676Z,9.50
2022-08-20T14:13:15.132Z,11.15
2022-08-20T14:15:39.782Z,9.35
2022-08-20T14:18:03.889Z,8.98
2022-08-20T14:20:32.377Z,10.13
2022-08-20T14:22:56.182Z,13.20
2022-08-20T14:25:22.918Z,10.20
2022-08-20T14:27:47.997Z,9.38
2022-08-20T14:30:19.138Z,9.38
2022-08-20T14:32:43.056Z,7.75
2022-08-20T14:35:08.147Z,11.40
2022-08-20T14:37:34.394Z,10.63
2022-08-20T14:40:00.494Z,10.02
2022-08-20T14:42:26.463Z,9.88
2022-08-20T14:44:52.153Z,13.73
2022-08-20T14:47:18.820Z,9.75
2022-08-20T14:49:42.936Z,10.20
2022-08-20T14:52:06.949Z,10.35
2022-08-20T14:54:30.606Z,9.13
2022-08-20T14:56:55.004Z,9.55
2022-08-20T14:59:18.598Z,7.90
2022-08-20T15:01:43.704Z,7.75
2022-08-20T15:04:07.267Z,8.48
2022-08-20T15:06:31.549Z,11.00
2022-08-20T15:08:55.139Z,10.85
2022-08-20T15:11:18.890Z,7.60
2022-08-20T15:13:42.511Z,7.25
2022-08-20T15:16:06.248Z,7.88
2022-08-20T15:18:32.011Z,7.70
2022-08-20T15:20:55.623Z,5.85
2022-08-20T15:23:19.345Z,8.90
2022-08-20T15:25:42.925Z,7.63
2022-08-20T15:28:09.391Z,8.80
2022-08-20T15:30:33.476Z,6.78
2022-08-20T15:32:57.542Z,5.93
2022-08-20T15:35:24.034Z,9.80
2022-08-20T15:37:50.721Z,9.30
2022-08-20T15:40:18.293Z,6.45
2022-08-20T15:42:41.980Z,5.60
2022-08-20T15:45:07.724Z,6.45
2022-08-20T15:47:37.483Z,7.95
2022-08-20T15:50:07.968Z,8.48
2022-08-20T15:52:42.463Z,7.43
2022-08-20T15:55:08.294Z,8.40
2022-08-20T15:57:47.214Z,7.30
2022-08-20T16:00:19.698Z,8.93
2022-08-20T16:03:18.912Z,8.27
2022-08-20T16:05:52.115Z,6.95
2022-08-20T16:08:54.280Z,12.93
2022-08-20T16:11:28.780Z,9.15
2022-08-20T16:13:57.472Z,7.45
2022-08-20T16:16:33.318Z,7.63
2022-08-20T16:18:57.365Z,6.35
2022-08-20T16:21:29.448Z,9.65
2022-08-20T16:23:55.452Z,9.15
2022-08-20T16:27:04.498Z,11.82
2022-08-20T16:29:46.694Z,11.60
2022-08-20T16:32:14.948Z,9.98
2022-08-20T16:34:44.266Z,9.85
2022-08-20T16:37:19.786Z,12.00
2022-08-20T16:39:56.860Z,10.98
2022-08-20T16:42:25.264Z,13.75
2022-08-20T16:44:52.240Z,10.05
2022-08-20T16:47:20.806Z,10.18
2022-08-20T16:49:51.489Z,10.80
2022-08-20T16:52:15.240Z,9.45
2022-08-20T16:54:38.837Z,8.13
2022-08-20T16:57:07.339Z,7.63
2022-08-20T16:59:32.127Z,10.60
2022-08-20T17:02:07.296Z,8.80
2022-08-20T17:04:34.914Z,10.77
2022-08-20T17:07:02.986Z,7.28
2022-08-20T17:09:41.295Z,7.80
2022-08-20T17:12:19.729Z,9.05
2022-08-20T17:14:50.215Z,9.10
2022-08-20T17:17:23.121Z,12.40
2022-08-20T17:19:55.344Z,8.82
2022-08-20T17:22:21.708Z,11.35
2022-08-20T17:24:45.182Z,10.68
2022-08-20T17:27:14.993Z,8.80
2022-08-20T17:29:54.216Z,10.60
2022-08-20T17:32:23.368Z,8.43
2022-08-20T17:34:51.083Z,8.07
2022-08-20T17:37:22.813Z,8.80
2022-08-20T17:39:48.855Z,12.93
2022-08-20T17:42:21.213Z,8.85
2022-08-20T17:44:52.482Z,8.95
2022-08-20T17:47:21.016Z,8.80
2022-08-20T17:50:02.187Z,9.73
2022-08-20T17:52:31.928Z,9.98
2022-08-20T17:54:55.882Z,8.52
2022-08-20T17:57:25.045Z,8.07
2022-08-20T18:00:01.272Z,7.88
2022-08-20T18:02:30.396Z,7.32
2022-08-20T18:04:57.442Z,8.68
2022-08-20T18:07:27.961Z,8.57
2022-08-20T18:10:02.894Z,10.48
2022-08-20T18:12:34.946Z,8.27
2022-08-20T18:15:08.655Z,8.00
2022-08-20T18:18:19.625Z,7.70
2022-08-20T18:21:41.483Z,7.90
2022-08-20T18:24:12.141Z,8.52
2022-08-20T18:26:46.141Z,9.35
2022-08-20T18:29:15.116Z,8.93
2022-08-20T18:31:48.706Z,9.27
2022-08-20T18:34:15.986Z,6.97
2022-08-20T18:36:39.849Z,8.40
2022-08-20T18:39:07.556Z,10.80
2022-08-20T18:41:34.733Z,6.53
2022-08-20T18:44:09.055Z,9.80
2022-08-20T18:46:33.381Z,7.43
2022-08-20T18:49:01.605Z,7.10
2022-08-20T18:51:36.868Z,7.05
2022-08-20T18:54:00.727Z,11.25
2022-08-20T18:56:38.541Z,7.60
2022-08-20T18:59:12.910Z,8.93
2022-08-20T19:01:41.397Z,8.85
2022-08-20T19:04:23.077Z,8.07
2022-08-20T19:06:57.619Z,10.13
2022-08-20T19:09:53.063Z,8.30
2022-08-20T19:12:37.222Z,9.57
2022-08-20T19:15:08.336Z,11.73
2022-08-20T19:17:56.623Z,6.10
2022-08-20T19:20:27.355Z,10.05
2022-08-20T19:22:54.310Z,7.57
2022-08-20T19:25:31.947Z,9.45
2022-08-20T19:27:57.742Z,8.52
2022-08-20T19:30:39.260Z,9.90
2022-08-20T19:33:05.051Z,9.90
2022-08-20T19:35:30.683Z,7.00
2022-08-20T19:37:59.602Z,9.55
2022-08-20T19:40:28.781Z,8.30
2022-08-20T19:42:53.067Z,9.35
2022-08-20T19:45:28.299Z,10.10
2022-08-20T19:48:05.992Z,9.95
2022-08-20T19:50:40.608Z,6.97
2022-08-20T19:53:26.430Z,5.45
2022-08-20T19:56:01.457Z,6.25
2022-08-20T19:58:27.341Z,8.40
2022-08-20T20:00:52.999Z,8.23
2022-08-20T20:03:22.908Z,9.00
2022-08-20T20:05:55.539Z,7.95
2022-08-20T20:08:20.171Z,7.82
2022-08-20T20:10:47.026Z,9.50
2022-08-20T20:13:16.456Z,7.53
2022-08-20T20:15:41.882Z,5.75
2022-08-20T20:18:06.301Z,10.05
2022-08-20T20:20:34.970Z,4.80
2022-08-20T20:23:06.844Z,11.57
2022-08-20T20:25:44.359Z,9.52
2022-08-20T20:28:22.777Z,8.95
2022-08-20T20:30:47.086Z,12.60
2022-08-20T20:33:18.979Z,9.38
2022-08-20T20:35:42.982Z,9.60
2022-08-20T20:38:11.479Z,7.50
2022-08-20T20:40:45.600Z,10.65
2022-08-20T20:43:12.739Z,7.82
2022-08-20T20:45:41.015Z,9.00
2022-08-20T20:48:18.730Z,5.72
2022-08-20T20:50:42.520Z,6.03
2022-08-20T20:53:07.466Z,7.43
2022-08-20T20:55:33.903Z,9.02
2022-08-20T20:57:58.573Z,8.02
2022-08-20T21:00:26.915Z,8.48
2022-08-20T21:02:50.729Z,11.90
2022-08-20T21:05:17.313Z,8.65
2022-08-20T21:07:50.919Z,6.85
2022-08-20T21:10:16.743Z,7.53
2022-08-20T21:12:40.391Z,8.07
2022-08-20T21:15:04.263Z,8.45
2022-08-20T21:17:28.019Z,7.35
2022-08-20T21:19:52.702Z,7.40
2022-08-20T21:22:16.578Z,7.75
2022-08-20T21:24:40.055Z,6.43
2022-08-20T21:27:05.344Z,6.03
2022-08-20T21:29:33.053Z,6.28
2022-08-20T21:31:57.125Z,6.93
2022-08-20T21:34:21.868Z,9.55
2022-08-20T21:36:48.859Z,8.80
2022-08-20T21:39:15.367Z,7.22
2022-08-20T21:41:43.212Z,6.45
2022-08-20T21:44:22.719Z,8.52
2022-08-20T21:46:50.743Z,8.90
2022-08-20T21:49:15.645Z,9.38
2022-08-20T21:51:39.792Z,9.93
2022-08-20T21:54:03.753Z,9.27
2022-08-20T21:56:29.492Z,9.98
2022-08-20T21:58:56.794Z,14.95
2022-08-20T22:01:22.771Z,8.35
2022-08-20T22:03:49.577Z,8.57
2022-08-20T22:06:16.465Z,8.18
2022-08-20T22:08:42.481Z,8.95
2022-08-20T22:11:10.385Z,9.63
2022-08-20T22:13:37.483Z,5.95
2022-08-20T22:16:02.495Z,7.88
2022-08-20T22:18:28.437Z,7.88
2022-08-20T22:20:52.528Z,6.97
2022-08-20T22:23:18.092Z,6.53
2022-08-20T22:25:43.996Z,9.30
2022-08-20T22:28:09.054Z,10.85
2022-08-20T22:30:34.274Z,8.25
2022-08-20T22:33:03.215Z,9.23
2022-08-20T22:35:29.177Z,10.23
2022-08-20T22:37:53.993Z,7.13
2022-08-20T22:40:18.609Z,9.07
2022-08-20T22:42:43.022Z,9.43
2022-08-20T22:45:13.446Z,7.22
2022-08-20T22:47:39.727Z,6.07
2022-08-20T22:50:05.947Z,8.45
2022-08-20T22:52:42.414Z,7.22
2022-08-20T22:55:09.518Z,7.93
2022-08-20T22:57:34.351Z,8.88
2022-08-20T22:59:59.506Z,7.28
2022-08-20T23:02:25.327Z,6.88
2022-08-20T23:04:49.373Z,6.43
2022-08-20T23:07:16.503Z,5.93
2022-08-20T23:09:43.130Z,6.13
2022-08-20T23:12:07.570Z,8.15
2022-08-20T23:14:31.500Z,7.70
2022-08-20T23:17:02.759Z,5.60
2022-08-20T23:19:26.892Z,5.88
2022-08-20T23:21:51.787Z,7.90
2022-08-20T23:24:16.058Z,9.40
2022-08-20T23:26:52.381Z,6.30
2022-08-20T23:29:22.225Z,7.43
2022-08-20T23:31:46.490Z,7.18
2022-08-20T23:34:11.673Z,7.10
2022-08-20T23:36:38.409Z,7.00
2022-08-20T23:39:02.268Z,5.90
2022-08-20T23:41:31.244Z,6.43
2022-08-20T23:44:03.635Z,6.43
2022-08-20T23:46:31.923Z,7.28
2022-08-20T23:48:56.280Z,6.68
2022-08-20T23:51:20.751Z,7.50
2022-08-20T23:53:44.891Z,7.22
2022-08-20T23:56:09.429Z,8.35
2022-08-20T23:58:33.641Z,8.93
